sensor_id;sensor_type;location;lat;lon;timestamp;P1;durP1;ratioP1;P2;durP2;ratioP2
68196;SDS011;55019;49.382;11.358;2023-02-01T00:01:45;6.10;;;2.90;;
68196;SDS011;55019;49.382;11.358;2023-02-01T00:04:10;5.85;;;3.00;;
68196;SDS011;55019;49.382;11.358;2023-02-01T00:06:36;5.93;;;2.90;;
68196;SDS011;55019;49.382;11.358;2023-02-01T00:09:02;4.97;;;2.92;;
68196;SDS011;55019;49.382;11.358;2023-02-01T00:11:28;4.07;;;2.70;;
68196;SDS011;55019;49.382;11.358;2023-02-01T00:13:53;5.30;;;2.97;;
68196;SDS011;55019;49.382;11.358;2023-02-01T00:16:27;4.60;;;3.05;;
68196;SDS011;55019;49.382;11.358;2023-02-01T00:19:02;6.13;;;3.05;;
68196;SDS011;55019;49.382;11.358;2023-02-01T00:21:28;5.75;;;3.13;;
68196;SDS011;55019;49.382;11.358;2023-02-01T00:23:54;6.13;;;3.72;;
68196;SDS011;55019;49.382;11.358;2023-02-01T00:26:22;3.72;;;2.42;;
68196;SDS011;55019;49.382;11.358;2023-02-01T00:29:01;5.45;;;3.10;;
68196;SDS011;55019;49.382;11.358;2023-02-01T00:31:28;4.57;;;3.05;;
68196;SDS011;55019;49.382;11.358;2023-02-01T00:33:53;5.88;;;3.20;;
68196;SDS011;55019;49.382;11.358;2023-02-01T00:36:19;4.82;;;3.30;;
68196;SDS011;55019;49.382;11.358;2023-02-01T00:38:44;5.00;;;3.30;;
68196;SDS011;55019;49.382;11.358;2023-02-01T00:41:11;4.78;;;2.85;;
68196;SDS011;55019;49.382;11.358;2023-02-01T00:43:39;4.18;;;2.90;;
68196;SDS011;55019;49.382;11.358;2023-02-01T00:46:04;4.18;;;3.13;;
68196;SDS011;55019;49.382;11.358;2023-02-01T00:48:30;3.50;;;2.80;;
68196;SDS011;55019;49.382;11.358;2023-02-01T00:50:59;5.90;;;3.13;;
68196;SDS011;55019;49.382;11.358;2023-02-01T00:53:25;6.13;;;2.95;;
68196;SDS011;55019;49.382;11.358;2023-02-01T00:55:51;3.67;;;2.72;;
68196;SDS011;55019;49.382;11.358;2023-02-01T00:58:17;4.15;;;3.20;;
68196;SDS011;55019;49.382;11.358;2023-02-01T01:00:42;4.53;;;3.10;;
68196;SDS011;55019;49.382;11.358;2023-02-01T01:03:07;5.25;;;3.10;;
68196;SDS011;55019;49.382;11.358;2023-02-01T01:05:45;4.47;;;3.75;;
68196;SDS011;55019;49.382;11.358;2023-02-01T01:08:11;4.90;;;3.42;;
68196;SDS011;55019;49.382;11.358;2023-02-01T01:10:39;7.25;;;3.05;;
68196;SDS011;55019;49.382;11.358;2023-02-01T01:13:06;5.00;;;3.00;;
68196;SDS011;55019;49.382;11.358;2023-02-01T01:15:35;5.38;;;3.22;;
68196;SDS011;55019;49.382;11.358;2023-02-01T01:18:04;4.68;;;2.97;;
68196;SDS011;55019;49.382;11.358;2023-02-01T01:20:29;5.10;;;3.15;;
68196;SDS011;55019;49.382;11.358;2023-02-01T01:22:55;4.95;;;2.42;;
68196;SDS011;55019;49.382;11.358;2023-02-01T01:25:20;4.55;;;3.10;;
68196;SDS011;55019;49.382;11.358;2023-02-01T01:27:46;4.40;;;2.75;;
68196;SDS011;55019;49.382;11.358;2023-02-01T01:30:12;4.28;;;3.05;;
68196;SDS011;55019;49.382;11.358;2023-02-01T01:32:37;4.60;;;2.95;;
68196;SDS011;55019;49.382;11.358;2023-02-01T01:35:03;5.10;;;2.88;;
68196;SDS011;55019;49.382;11.358;2023-02-01T01:37:28;5.13;;;2.67;;
68196;SDS011;55019;49.382;11.358;2023-02-01T01:39:54;7.60;;;3.63;;
68196;SDS011;55019;49.382;11.358;2023-02-01T01:42:20;6.30;;;2.90;;
68196;SDS011;55019;49.382;11.358;2023-02-01T01:47:42;3.85;;;2.63;;
68196;SDS011;55019;49.382;11.358;2023-02-01T01:52:42;3.33;;;2.53;;
68196;SDS011;55019;49.382;11.358;2023-02-01T01:55:11;4.22;;;2.97;;
68196;SDS011;55019;49.382;11.358;2023-02-01T01:57:41;4.57;;;3.17;;
68196;SDS011;55019;49.382;11.358;2023-02-01T02:00:11;4.43;;;3.10;;
68196;SDS011;55019;49.382;11.358;2023-02-01T02:02:40;4.20;;;2.70;;
68196;SDS011;55019;49.382;11.358;2023-02-01T02:05:09;4.97;;;3.05;;
68196;SDS011;55019;49.382;11.358;2023-02-01T02:07:36;3.92;;;2.75;;
68196;SDS011;55019;49.382;11.358;2023-02-01T02:10:06;5.35;;;2.90;;
68196;SDS011;55019;49.382;11.358;2023-02-01T02:12:37;4.55;;;2.65;;
68196;SDS011;55019;49.382;11.358;2023-02-01T02:15:04;4.18;;;2.75;;
68196;SDS011;55019;49.382;11.358;2023-02-01T02:17:50;6.90;;;2.60;;
68196;SDS011;55019;49.382;11.358;2023-02-01T02:23:31;3.78;;;2.92;;
68196;SDS011;55019;49.382;11.358;2023-02-01T02:26:25;4.18;;;2.58;;
68196;SDS011;55019;49.382;11.358;2023-02-01T02:34:06;5.78;;;2.28;;
68196;SDS011;55019;49.382;11.358;2023-02-01T02:37:00;3.90;;;2.30;;
68196;SDS011;55019;49.382;11.358;2023-02-01T02:42:20;3.15;;;2.15;;
68196;SDS011;55019;49.382;11.358;2023-02-01T02:48:09;5.35;;;2.17;;
68196;SDS011;55019;49.382;11.358;2023-02-01T02:53:42;3.88;;;2.05;;
68196;SDS011;55019;49.382;11.358;2023-02-01T02:56:29;3.17;;;1.98;;
68196;SDS011;55019;49.382;11.358;2023-02-01T02:59:14;6.32;;;2.67;;
68196;SDS011;55019;49.382;11.358;2023-02-01T03:02:01;4.18;;;2.30;;
68196;SDS011;55019;49.382;11.358;2023-02-01T03:04:45;3.33;;;2.28;;
68196;SDS011;55019;49.382;11.358;2023-02-01T03:07:12;4.00;;;2.58;;
68196;SDS011;55019;49.382;11.358;2023-02-01T03:09:41;3.72;;;2.33;;
68196;SDS011;55019;49.382;11.358;2023-02-01T03:12:11;4.95;;;2.28;;
68196;SDS011;55019;49.382;11.358;2023-02-01T03:14:59;3.30;;;2.25;;
68196;SDS011;55019;49.382;11.358;2023-02-01T03:17:34;5.20;;;2.88;;
68196;SDS011;55019;49.382;11.358;2023-02-01T03:20:04;4.40;;;2.40;;
68196;SDS011;55019;49.382;11.358;2023-02-01T03:22:32;3.95;;;2.45;;
68196;SDS011;55019;49.382;11.358;2023-02-01T03:27:40;3.90;;;2.33;;
68196;SDS011;55019;49.382;11.358;2023-02-01T03:32:46;5.15;;;2.70;;
68196;SDS011;55019;49.382;11.358;2023-02-01T03:41:02;5.10;;;2.67;;
68196;SDS011;55019;49.382;11.358;2023-02-01T03:43:29;4.78;;;2.72;;
68196;SDS011;55019;49.382;11.358;2023-02-01T03:46:00;6.03;;;2.90;;
68196;SDS011;55019;49.382;11.358;2023-02-01T03:48:30;4.38;;;2.45;;
68196;SDS011;55019;49.382;11.358;2023-02-01T03:50:58;3.95;;;2.70;;
68196;SDS011;55019;49.382;11.358;2023-02-01T03:53:28;4.55;;;3.25;;
68196;SDS011;55019;49.382;11.358;2023-02-01T03:55:55;5.70;;;2.95;;
68196;SDS011;55019;49.382;11.358;2023-02-01T03:58:22;5.38;;;3.50;;
68196;SDS011;55019;49.382;11.358;2023-02-01T04:00:54;7.13;;;3.17;;
68196;SDS011;55019;49.382;11.358;2023-02-01T04:03:21;5.22;;;3.63;;
68196;SDS011;55019;49.382;11.358;2023-02-01T04:05:51;5.00;;;3.10;;
68196;SDS011;55019;49.382;11.358;2023-02-01T04:08:17;5.82;;;3.63;;
68196;SDS011;55019;49.382;11.358;2023-02-01T04:10:44;4.22;;;2.60;;
68196;SDS011;55019;49.382;11.358;2023-02-01T04:13:09;3.78;;;2.92;;
68196;SDS011;55019;49.382;11.358;2023-02-01T04:15:34;5.38;;;3.03;;
68196;SDS011;55019;49.382;11.358;2023-02-01T04:18:00;5.00;;;3.22;;
68196;SDS011;55019;49.382;11.358;2023-02-01T04:20:26;5.13;;;2.53;;
68196;SDS011;55019;49.382;11.358;2023-02-01T04:22:52;6.57;;;3.45;;
68196;SDS011;55019;49.382;11.358;2023-02-01T04:25:17;5.40;;;3.00;;
68196;SDS011;55019;49.382;11.358;2023-02-01T04:27:43;4.38;;;2.60;;
68196;SDS011;55019;49.382;11.358;2023-02-01T04:30:09;6.50;;;3.22;;
68196;SDS011;55019;49.382;11.358;2023-02-01T04:32:36;4.60;;;2.72;;
68196;SDS011;55019;49.382;11.358;2023-02-01T04:35:02;3.95;;;2.80;;
68196;SDS011;55019;49.382;11.358;2023-02-01T04:37:28;3.47;;;2.53;;
68196;SDS011;55019;49.382;11.358;2023-02-01T04:39:54;4.07;;;2.72;;
68196;SDS011;55019;49.382;11.358;2023-02-01T04:42:19;4.78;;;2.38;;
68196;SDS011;55019;49.382;11.358;2023-02-01T04:44:45;4.90;;;2.70;;
68196;SDS011;55019;49.382;11.358;2023-02-01T04:47:10;4.82;;;2.78;;
68196;SDS011;55019;49.382;11.358;2023-02-01T04:49:35;4.75;;;2.80;;
68196;SDS011;55019;49.382;11.358;2023-02-01T04:52:01;6.72;;;3.03;;
68196;SDS011;55019;49.382;11.358;2023-02-01T04:54:27;4.75;;;2.67;;
68196;SDS011;55019;49.382;11.358;2023-02-01T04:56:52;5.55;;;3.30;;
68196;SDS011;55019;49.382;11.358;2023-02-01T04:59:17;5.32;;;3.42;;
68196;SDS011;55019;49.382;11.358;2023-02-01T05:01:43;4.70;;;2.80;;
68196;SDS011;55019;49.382;11.358;2023-02-01T05:04:09;4.28;;;2.90;;
68196;SDS011;55019;49.382;11.358;2023-02-01T05:06:34;4.68;;;2.70;;
68196;SDS011;55019;49.382;11.358;2023-02-01T05:09:00;6.18;;;3.20;;
68196;SDS011;55019;49.382;11.358;2023-02-01T05:11:25;4.78;;;2.75;;
68196;SDS011;55019;49.382;11.358;2023-02-01T05:14:09;4.53;;;3.10;;
68196;SDS011;55019;49.382;11.358;2023-02-01T05:16:34;5.47;;;2.60;;
68196;SDS011;55019;49.382;11.358;2023-02-01T05:19:00;4.55;;;2.75;;
68196;SDS011;55019;49.382;11.358;2023-02-01T05:21:25;6.18;;;2.50;;
68196;SDS011;55019;49.382;11.358;2023-02-01T05:23:51;5.07;;;2.88;;
68196;SDS011;55019;49.382;11.358;2023-02-01T05:26:35;4.53;;;2.80;;
68196;SDS011;55019;49.382;11.358;2023-02-01T05:29:01;4.57;;;2.55;;
68196;SDS011;55019;49.382;11.358;2023-02-01T05:31:27;4.43;;;2.60;;
68196;SDS011;55019;49.382;11.358;2023-02-01T05:33:52;4.32;;;2.78;;
68196;SDS011;55019;49.382;11.358;2023-02-01T05:36:18;7.47;;;2.70;;
68196;SDS011;55019;49.382;11.358;2023-02-01T05:38:43;4.75;;;2.92;;
68196;SDS011;55019;49.382;11.358;2023-02-01T05:41:09;5.82;;;2.72;;
68196;SDS011;55019;49.382;11.358;2023-02-01T05:43:34;5.05;;;2.90;;
68196;SDS011;55019;49.382;11.358;2023-02-01T05:46:00;4.15;;;2.75;;
68196;SDS011;55019;49.382;11.358;2023-02-01T05:48:25;4.68;;;2.65;;
68196;SDS011;55019;49.382;11.358;2023-02-01T05:50:51;5.43;;;2.72;;
68196;SDS011;55019;49.382;11.358;2023-02-01T05:53:16;3.90;;;2.83;;
68196;SDS011;55019;49.382;11.358;2023-02-01T05:55:42;3.40;;;2.63;;
68196;SDS011;55019;49.382;11.358;2023-02-01T05:58:07;4.22;;;3.00;;
68196;SDS011;55019;49.382;11.358;2023-02-01T06:00:33;4.50;;;3.08;;
68196;SDS011;55019;49.382;11.358;2023-02-01T06:02:58;3.60;;;2.30;;
68196;SDS011;55019;49.382;11.358;2023-02-01T06:05:24;5.32;;;2.53;;
68196;SDS011;55019;49.382;11.358;2023-02-01T06:07:49;7.00;;;3.22;;
68196;SDS011;55019;49.382;11.358;2023-02-01T06:10:15;3.78;;;2.35;;
68196;SDS011;55019;49.382;11.358;2023-02-01T06:12:42;4.47;;;2.20;;
68196;SDS011;55019;49.382;11.358;2023-02-01T06:15:07;4.43;;;2.28;;
68196;SDS011;55019;49.382;11.358;2023-02-01T06:17:33;3.85;;;1.70;;
68196;SDS011;55019;49.382;11.358;2023-02-01T06:19:59;2.42;;;1.55;;
68196;SDS011;55019;49.382;11.358;2023-02-01T06:22:24;2.63;;;1.23;;
68196;SDS011;55019;49.382;11.358;2023-02-01T06:24:50;2.70;;;1.55;;
68196;SDS011;55019;49.382;11.358;2023-02-01T06:27:15;3.17;;;1.55;;
68196;SDS011;55019;49.382;11.358;2023-02-01T06:29:41;4.50;;;1.70;;
68196;SDS011;55019;49.382;11.358;2023-02-01T06:32:06;2.45;;;1.58;;
68196;SDS011;55019;49.382;11.358;2023-02-01T06:34:32;3.40;;;1.70;;
68196;SDS011;55019;49.382;11.358;2023-02-01T06:36:57;1.73;;;1.45;;
68196;SDS011;55019;49.382;11.358;2023-02-01T06:39:22;3.50;;;1.75;;
68196;SDS011;55019;49.382;11.358;2023-02-01T06:41:48;3.78;;;1.90;;
68196;SDS011;55019;49.382;11.358;2023-02-01T06:44:14;2.47;;;2.03;;
68196;SDS011;55019;49.382;11.358;2023-02-01T06:46:40;3.70;;;1.67;;
68196;SDS011;55019;49.382;11.358;2023-02-01T06:49:05;2.80;;;1.90;;
68196;SDS011;55019;49.382;11.358;2023-02-01T06:51:30;3.63;;;2.17;;
68196;SDS011;55019;49.382;11.358;2023-02-01T06:53:56;3.05;;;2.00;;
68196;SDS011;55019;49.382;11.358;2023-02-01T06:56:22;4.00;;;2.70;;
68196;SDS011;55019;49.382;11.358;2023-02-01T06:58:47;2.55;;;1.65;;
68196;SDS011;55019;49.382;11.358;2023-02-01T07:01:14;4.13;;;2.22;;
68196;SDS011;55019;49.382;11.358;2023-02-01T07:03:40;3.65;;;2.22;;
68196;SDS011;55019;49.382;11.358;2023-02-01T07:06:05;4.70;;;2.55;;
68196;SDS011;55019;49.382;11.358;2023-02-01T07:08:32;2.80;;;1.90;;
68196;SDS011;55019;49.382;11.358;2023-02-01T07:11:03;3.67;;;2.28;;
68196;SDS011;55019;49.382;11.358;2023-02-01T07:13:34;3.70;;;2.00;;
68196;SDS011;55019;49.382;11.358;2023-02-01T07:16:00;3.80;;;2.22;;
68196;SDS011;55019;49.382;11.358;2023-02-01T07:18:28;3.03;;;2.30;;
68196;SDS011;55019;49.382;11.358;2023-02-01T07:20:54;2.63;;;1.80;;
68196;SDS011;55019;49.382;11.358;2023-02-01T07:23:20;3.47;;;1.88;;
68196;SDS011;55019;49.382;11.358;2023-02-01T07:25:45;2.70;;;1.88;;
68196;SDS011;55019;49.382;11.358;2023-02-01T07:28:11;2.78;;;1.95;;
68196;SDS011;55019;49.382;11.358;2023-02-01T07:30:36;2.80;;;1.95;;
68196;SDS011;55019;49.382;11.358;2023-02-01T07:33:02;3.17;;;1.85;;
68196;SDS011;55019;49.382;11.358;2023-02-01T07:35:27;2.75;;;1.42;;
68196;SDS011;55019;49.382;11.358;2023-02-01T07:37:53;2.58;;;1.75;;
68196;SDS011;55019;49.382;11.358;2023-02-01T07:40:19;4.32;;;2.08;;
68196;SDS011;55019;49.382;11.358;2023-02-01T07:42:50;2.70;;;1.88;;
68196;SDS011;55019;49.382;11.358;2023-02-01T07:45:15;3.13;;;2.13;;
68196;SDS011;55019;49.382;11.358;2023-02-01T07:47:41;2.80;;;1.90;;
68196;SDS011;55019;49.382;11.358;2023-02-01T07:50:06;3.03;;;1.77;;
68196;SDS011;55019;49.382;11.358;2023-02-01T07:52:32;2.70;;;2.08;;
68196;SDS011;55019;49.382;11.358;2023-02-01T07:54:57;2.42;;;1.80;;
68196;SDS011;55019;49.382;11.358;2023-02-01T07:57:23;3.58;;;1.90;;
68196;SDS011;55019;49.382;11.358;2023-02-01T07:59:48;2.25;;;1.77;;
68196;SDS011;55019;49.382;11.358;2023-02-01T08:02:32;2.33;;;1.75;;
68196;SDS011;55019;49.382;11.358;2023-02-01T08:04:57;3.03;;;1.98;;
68196;SDS011;55019;49.382;11.358;2023-02-01T08:07:23;3.38;;;1.73;;
68196;SDS011;55019;49.382;11.358;2023-02-01T08:09:48;3.42;;;1.48;;
68196;SDS011;55019;49.382;11.358;2023-02-01T08:12:14;2.17;;;1.30;;
68196;SDS011;55019;49.382;11.358;2023-02-01T08:14:39;2.70;;;1.88;;
68196;SDS011;55019;49.382;11.358;2023-02-01T08:17:06;3.65;;;2.03;;
68196;SDS011;55019;49.382;11.358;2023-02-01T08:19:31;1.90;;;1.40;;
68196;SDS011;55019;49.382;11.358;2023-02-01T08:21:57;3.33;;;1.73;;
68196;SDS011;55019;49.382;11.358;2023-02-01T08:24:24;2.80;;;1.45;;
68196;SDS011;55019;49.382;11.358;2023-02-01T08:26:49;2.10;;;1.27;;
68196;SDS011;55019;49.382;11.358;2023-02-01T08:29:15;2.88;;;1.13;;
68196;SDS011;55019;49.382;11.358;2023-02-01T08:31:41;3.60;;;1.52;;
68196;SDS011;55019;49.382;11.358;2023-02-01T08:34:07;2.30;;;1.38;;
68196;SDS011;55019;49.382;11.358;2023-02-01T08:36:34;3.10;;;1.10;;
68196;SDS011;55019;49.382;11.358;2023-02-01T08:38:59;2.63;;;1.25;;
68196;SDS011;55019;49.382;11.358;2023-02-01T08:41:26;1.90;;;1.52;;
68196;SDS011;55019;49.382;11.358;2023-02-01T08:43:54;2.35;;;1.08;;
68196;SDS011;55019;49.382;11.358;2023-02-01T08:46:20;3.35;;;1.58;;
68196;SDS011;55019;49.382;11.358;2023-02-01T08:48:46;2.17;;;1.20;;
68196;SDS011;55019;49.382;11.358;2023-02-01T08:51:13;2.92;;;1.40;;
68196;SDS011;55019;49.382;11.358;2023-02-01T08:53:40;2.35;;;1.23;;
68196;SDS011;55019;49.382;11.358;2023-02-01T08:56:06;2.53;;;0.95;;
68196;SDS011;55019;49.382;11.358;2023-02-01T08:58:32;1.75;;;0.90;;
68196;SDS011;55019;49.382;11.358;2023-02-01T09:01:02;2.47;;;1.27;;
68196;SDS011;55019;49.382;11.358;2023-02-01T09:03:28;2.05;;;1.20;;
68196;SDS011;55019;49.382;11.358;2023-02-01T09:05:59;3.97;;;0.93;;
68196;SDS011;55019;49.382;11.358;2023-02-01T09:08:28;1.92;;;0.95;;
68196;SDS011;55019;49.382;11.358;2023-02-01T09:10:57;1.40;;;1.02;;
68196;SDS011;55019;49.382;11.358;2023-02-01T09:13:24;3.85;;;1.40;;
68196;SDS011;55019;49.382;11.358;2023-02-01T09:15:50;2.92;;;1.23;;
68196;SDS011;55019;49.382;11.358;2023-02-01T09:18:16;2.83;;;1.35;;
68196;SDS011;55019;49.382;11.358;2023-02-01T09:20:41;1.80;;;1.25;;
68196;SDS011;55019;49.382;11.358;2023-02-01T09:23:07;2.88;;;1.10;;
68196;SDS011;55019;49.382;11.358;2023-02-01T09:25:32;2.75;;;1.60;;
68196;SDS011;55019;49.382;11.358;2023-02-01T09:27:57;2.47;;;1.13;;
68196;SDS011;55019;49.382;11.358;2023-02-01T09:30:23;4.28;;;1.88;;
68196;SDS011;55019;49.382;11.358;2023-02-01T09:32:48;3.50;;;1.50;;
68196;SDS011;55019;49.382;11.358;2023-02-01T09:35:14;2.80;;;1.30;;
68196;SDS011;55019;49.382;11.358;2023-02-01T09:37:39;1.52;;;1.25;;
68196;SDS011;55019;49.382;11.358;2023-02-01T09:40:05;1.55;;;1.10;;
68196;SDS011;55019;49.382;11.358;2023-02-01T09:47:54;1.77;;;1.27;;
68196;SDS011;55019;49.382;11.358;2023-02-01T09:50:27;3.13;;;1.40;;
68196;SDS011;55019;49.382;11.358;2023-02-01T09:55:49;4.80;;;0.90;;
68196;SDS011;55019;49.382;11.358;2023-02-01T09:58:19;2.08;;;0.85;;
68196;SDS011;55019;49.382;11.358;2023-02-01T10:00:58;2.17;;;0.90;;
68196;SDS011;55019;49.382;11.358;2023-02-01T10:03:26;4.13;;;0.60;;
68196;SDS011;55019;49.382;11.358;2023-02-01T10:05:58;3.92;;;0.93;;
68196;SDS011;55019;49.382;11.358;2023-02-01T10:13:53;2.28;;;0.75;;
68196;SDS011;55019;49.382;11.358;2023-02-01T10:22:02;2.55;;;0.98;;
68196;SDS011;55019;49.382;11.358;2023-02-01T10:24:39;2.83;;;0.68;;
68196;SDS011;55019;49.382;11.358;2023-02-01T10:27:11;3.50;;;0.60;;
68196;SDS011;55019;49.382;11.358;2023-02-01T10:29:44;4.35;;;0.88;;
68196;SDS011;55019;49.382;11.358;2023-02-01T10:32:14;3.55;;;1.30;;
68196;SDS011;55019;49.382;11.358;2023-02-01T10:35:04;4.97;;;1.00;;
68196;SDS011;55019;49.382;11.358;2023-02-01T10:37:38;4.28;;;1.17;;
68196;SDS011;55019;49.382;11.358;2023-02-01T10:40:24;5.22;;;1.30;;
68196;SDS011;55019;49.382;11.358;2023-02-01T10:42:54;4.13;;;1.65;;
68196;SDS011;55019;49.382;11.358;2023-02-01T10:45:26;4.18;;;1.25;;
68196;SDS011;55019;49.382;11.358;2023-02-01T10:47:54;1.73;;;1.20;;
68196;SDS011;55019;49.382;11.358;2023-02-01T10:52:55;7.15;;;2.28;;
68196;SDS011;55019;49.382;11.358;2023-02-01T10:58:28;5.90;;;1.33;;
68196;SDS011;55019;49.382;11.358;2023-02-01T11:01:04;4.60;;;1.52;;
68196;SDS011;55019;49.382;11.358;2023-02-01T11:07:03;4.75;;;1.70;;
68196;SDS011;55019;49.382;11.358;2023-02-01T11:09:32;4.95;;;1.38;;
68196;SDS011;55019;49.382;11.358;2023-02-01T11:12:03;7.53;;;1.45;;
68196;SDS011;55019;49.382;11.358;2023-02-01T11:14:34;5.35;;;1.85;;
68196;SDS011;55019;49.382;11.358;2023-02-01T11:19:42;4.32;;;1.90;;
68196;SDS011;55019;49.382;11.358;2023-02-01T11:22:09;3.65;;;1.73;;
68196;SDS011;55019;49.382;11.358;2023-02-01T11:24:38;5.47;;;2.15;;
68196;SDS011;55019;49.382;11.358;2023-02-01T11:27:05;3.42;;;1.73;;
68196;SDS011;55019;49.382;11.358;2023-02-01T11:29:45;3.78;;;2.35;;
68196;SDS011;55019;49.382;11.358;2023-02-01T11:32:15;7.97;;;2.83;;
68196;SDS011;55019;49.382;11.358;2023-02-01T11:34:46;6.63;;;1.83;;
68196;SDS011;55019;49.382;11.358;2023-02-01T11:39:55;4.35;;;1.35;;
68196;SDS011;55019;49.382;11.358;2023-02-01T11:42:25;5.32;;;1.80;;
68196;SDS011;55019;49.382;11.358;2023-02-01T11:45:07;2.28;;;1.17;;
68196;SDS011;55019;49.382;11.358;2023-02-01T11:47:43;5.07;;;1.00;;
68196;SDS011;55019;49.382;11.358;2023-02-01T11:50:17;3.75;;;1.63;;
68196;SDS011;55019;49.382;11.358;2023-02-01T11:52:56;4.45;;;0.90;;
68196;SDS011;55019;49.382;11.358;2023-02-01T11:57:57;3.50;;;1.10;;
68196;SDS011;55019;49.382;11.358;2023-02-01T12:00:28;6.15;;;1.13;;
68196;SDS011;55019;49.382;11.358;2023-02-01T12:06:17;6.72;;;1.35;;
68196;SDS011;55019;49.382;11.358;2023-02-01T12:14:01;4.57;;;1.38;;
68196;SDS011;55019;49.382;11.358;2023-02-01T12:16:42;5.65;;;1.80;;
68196;SDS011;55019;49.382;11.358;2023-02-01T12:22:16;5.00;;;2.13;;
68196;SDS011;55019;49.382;11.358;2023-02-01T12:38:59;2.53;;;1.10;;
68196;SDS011;55019;49.382;11.358;2023-02-01T12:47:35;5.03;;;1.40;;
68196;SDS011;55019;49.382;11.358;2023-02-01T12:53:07;3.97;;;1.23;;
68196;SDS011;55019;49.382;11.358;2023-02-01T12:55:46;6.47;;;1.42;;
68196;SDS011;55019;49.382;11.358;2023-02-01T12:58:22;2.58;;;1.10;;
68196;SDS011;55019;49.382;11.358;2023-02-01T13:00:54;3.50;;;1.10;;
68196;SDS011;55019;49.382;11.358;2023-02-01T13:03:38;3.60;;;1.30;;
68196;SDS011;55019;49.382;11.358;2023-02-01T13:06:13;3.45;;;1.10;;
68196;SDS011;55019;49.382;11.358;2023-02-01T13:08:47;2.28;;;1.40;;
68196;SDS011;55019;49.382;11.358;2023-02-01T13:11:20;5.15;;;1.23;;
68196;SDS011;55019;49.382;11.358;2023-02-01T13:16:43;3.45;;;0.93;;
68196;SDS011;55019;49.382;11.358;2023-02-01T13:19:18;3.42;;;1.40;;
68196;SDS011;55019;49.382;11.358;2023-02-01T13:22:01;4.25;;;1.38;;
68196;SDS011;55019;49.382;11.358;2023-02-01T13:24:38;9.23;;;1.42;;
68196;SDS011;55019;49.382;11.358;2023-02-01T13:27:05;4.22;;;1.17;;
68196;SDS011;55019;49.382;11.358;2023-02-01T13:29:31;5.10;;;1.20;;
68196;SDS011;55019;49.382;11.358;2023-02-01T13:37:44;2.83;;;0.85;;
68196;SDS011;55019;49.382;11.358;2023-02-01T13:40:39;4.30;;;1.20;;
68196;SDS011;55019;49.382;11.358;2023-02-01T13:43:22;9.43;;;1.50;;
68196;SDS011;55019;49.382;11.358;2023-02-01T13:45:51;5.18;;;1.30;;
68196;SDS011;55019;49.382;11.358;2023-02-01T13:48:22;3.30;;;1.02;;
68196;SDS011;55019;49.382;11.358;2023-02-01T13:50:57;4.65;;;1.20;;
68196;SDS011;55019;49.382;11.358;2023-02-01T13:53:29;4.63;;;1.15;;
68196;SDS011;55019;49.382;11.358;2023-02-01T13:58:36;3.75;;;0.90;;
68196;SDS011;55019;49.382;11.358;2023-02-01T14:03:47;3.65;;;1.25;;
68196;SDS011;55019;49.382;11.358;2023-02-01T14:06:15;3.00;;;0.93;;
68196;SDS011;55019;49.382;11.358;2023-02-01T14:08:42;1.35;;;0.82;;
68196;SDS011;55019;49.382;11.358;2023-02-01T14:13:57;4.65;;;1.08;;
68196;SDS011;55019;49.382;11.358;2023-02-01T14:16:41;4.70;;;1.10;;
68196;SDS011;55019;49.382;11.358;2023-02-01T14:21:48;1.92;;;0.90;;
68196;SDS011;55019;49.382;11.358;2023-02-01T14:27:02;4.25;;;1.20;;
68196;SDS011;55019;49.382;11.358;2023-02-01T14:29:53;3.40;;;0.90;;
68196;SDS011;55019;49.382;11.358;2023-02-01T14:32:24;1.92;;;1.05;;
68196;SDS011;55019;49.382;11.358;2023-02-01T14:34:55;6.15;;;1.20;;
68196;SDS011;55019;49.382;11.358;2023-02-01T14:37:29;7.93;;;1.00;;
68196;SDS011;55019;49.382;11.358;2023-02-01T14:42:49;5.45;;;1.63;;
68196;SDS011;55019;49.382;11.358;2023-02-01T15:00:58;7.20;;;1.50;;
68196;SDS011;55019;49.382;11.358;2023-02-01T15:05:59;4.20;;;2.45;;
68196;SDS011;55019;49.382;11.358;2023-02-01T15:08:32;6.30;;;1.23;;
68196;SDS011;55019;49.382;11.358;2023-02-01T15:11:02;2.83;;;1.23;;
68196;SDS011;55019;49.382;11.358;2023-02-01T15:13:31;2.15;;;1.15;;
68196;SDS011;55019;49.382;11.358;2023-02-01T15:16:01;5.10;;;1.30;;
68196;SDS011;55019;49.382;11.358;2023-02-01T15:18:28;3.88;;;1.58;;
68196;SDS011;55019;49.382;11.358;2023-02-01T15:20:57;4.93;;;1.25;;
68196;SDS011;55019;49.382;11.358;2023-02-01T15:23:24;6.88;;;1.58;;
68196;SDS011;55019;49.382;11.358;2023-02-01T15:25:49;5.65;;;1.42;;
68196;SDS011;55019;49.382;11.358;2023-02-01T15:28:15;2.47;;;1.20;;
68196;SDS011;55019;49.382;11.358;2023-02-01T15:33:36;3.05;;;1.17;;
68196;SDS011;55019;49.382;11.358;2023-02-01T15:38:31;3.90;;;1.58;;
68196;SDS011;55019;49.382;11.358;2023-02-01T15:41:15;3.10;;;1.02;;
68196;SDS011;55019;49.382;11.358;2023-02-01T15:46:16;4.30;;;1.13;;
68196;SDS011;55019;49.382;11.358;2023-02-01T15:48:55;5.60;;;1.58;;
68196;SDS011;55019;49.382;11.358;2023-02-01T15:51:21;5.63;;;1.10;;
68196;SDS011;55019;49.382;11.358;2023-02-01T15:53:58;4.20;;;1.20;;
68196;SDS011;55019;49.382;11.358;2023-02-01T15:59:06;6.25;;;0.93;;
68196;SDS011;55019;49.382;11.358;2023-02-01T16:01:40;2.33;;;0.70;;
68196;SDS011;55019;49.382;11.358;2023-02-01T16:06:49;5.70;;;1.08;;
68196;SDS011;55019;49.382;11.358;2023-02-01T16:09:18;4.65;;;1.48;;
68196;SDS011;55019;49.382;11.358;2023-02-01T16:11:55;6.50;;;0.95;;
68196;SDS011;55019;49.382;11.358;2023-02-01T16:14:21;4.82;;;1.60;;
68196;SDS011;55019;49.382;11.358;2023-02-01T16:16:47;5.07;;;1.25;;
68196;SDS011;55019;49.382;11.358;2023-02-01T16:19:13;3.38;;;0.80;;
68196;SDS011;55019;49.382;11.358;2023-02-01T16:21:38;2.70;;;1.25;;
68196;SDS011;55019;49.382;11.358;2023-02-01T16:24:04;2.25;;;0.75;;
68196;SDS011;55019;49.382;11.358;2023-02-01T16:26:30;3.33;;;0.50;;
68196;SDS011;55019;49.382;11.358;2023-02-01T16:28:56;14.45;;;5.60;;
68196;SDS011;55019;49.382;11.358;2023-02-01T16:31:25;7.65;;;1.88;;
68196;SDS011;55019;49.382;11.358;2023-02-01T16:33:54;2.92;;;1.00;;
68196;SDS011;55019;49.382;11.358;2023-02-01T16:36:19;7.28;;;1.58;;
68196;SDS011;55019;49.382;11.358;2023-02-01T16:38:46;3.60;;;0.90;;
68196;SDS011;55019;49.382;11.358;2023-02-01T16:41:13;6.07;;;0.63;;
68196;SDS011;55019;49.382;11.358;2023-02-01T16:43:40;4.13;;;1.00;;
68196;SDS011;55019;49.382;11.358;2023-02-01T16:46:05;4.32;;;1.10;;
68196;SDS011;55019;49.382;11.358;2023-02-01T16:48:38;3.53;;;1.00;;
68196;SDS011;55019;49.382;11.358;2023-02-01T16:51:09;3.67;;;1.00;;
68196;SDS011;55019;49.382;11.358;2023-02-01T16:53:37;5.68;;;1.30;;
68196;SDS011;55019;49.382;11.358;2023-02-01T16:56:36;2.97;;;1.10;;
68196;SDS011;55019;49.382;11.358;2023-02-01T16:58:56;3.65;;;1.15;;
68196;SDS011;55019;49.382;11.358;2023-02-01T17:01:22;4.30;;;1.15;;
68196;SDS011;55019;49.382;11.358;2023-02-01T17:03:48;5.80;;;1.02;;
68196;SDS011;55019;49.382;11.358;2023-02-01T17:06:16;3.67;;;0.88;;
68196;SDS011;55019;49.382;11.358;2023-02-01T17:08:47;2.90;;;0.85;;
68196;SDS011;55019;49.382;11.358;2023-02-01T17:11:16;6.60;;;1.75;;
68196;SDS011;55019;49.382;11.358;2023-02-01T17:13:41;4.57;;;1.02;;
68196;SDS011;55019;49.382;11.358;2023-02-01T17:19:02;7.93;;;1.60;;
68196;SDS011;55019;49.382;11.358;2023-02-01T17:21:30;2.55;;;1.02;;
68196;SDS011;55019;49.382;11.358;2023-02-01T17:24:05;4.72;;;1.30;;
68196;SDS011;55019;49.382;11.358;2023-02-01T17:26:31;3.30;;;0.80;;
68196;SDS011;55019;49.382;11.358;2023-02-01T17:28:56;3.40;;;0.93;;